Overview Statistics Trail Chart Weather Telemetry Raw packets
 

This is the latest recevied weather packets stored in our database for station/object HS5XHC-1. If no packets are shown the sender has not sent any weather packets the latest 10 day(s).

<< 35 36 37 38 39 40 41 >>
Time Temp. Humidity Pressure Rain* Wind** Luminosity Snow
1777340122 25.56° C 59% 967 hPa - - 0 W/m² -
1777339498 27.22° C 55% 967 hPa - - 0 W/m² -
1777338874 27.22° C 55% 967 hPa - - 0 W/m² -
1777338250 26.67° C 56% 967 hPa - - 0 W/m² -
1777337626 26.67° C 57% 967 hPa - - 0 W/m² -
1777337001 27.22° C 57% 967 hPa - - 0 W/m² -
1777336382 26.67° C 57% 966 hPa - - 0 W/m² -
1777335753 26.67° C 57% 967 hPa - - 0 W/m² -
1777335128 26.11° C 57% 966 hPa - - 0 W/m² -
1777334504 25.56° C 60% 966 hPa - - 0 W/m² -
1777333880 25.56° C 62% 966 hPa - - 0 W/m² -
1777333257 25.56° C 61% 967 hPa - - 0 W/m² -
1777332633 26.11° C 59% 966 hPa - - 0 W/m² -
1777332009 26.11° C 58% 966 hPa - - 0 W/m² -
1777331385 26.67° C 57% 966 hPa - - 0 W/m² -
1777330761 26.11° C 59% 966 hPa - - 0 W/m² -
1777330137 25.56° C 60% 966 hPa - - 0 W/m² -
1777329512 25° C 63% 965 hPa - - 0 W/m² -
1777328888 25° C 63% 966 hPa - - 0 W/m² -
1777328264 26.11° C 59% 966 hPa - - 0 W/m² -
1777327640 25.56° C 60% 965 hPa - - 0 W/m² -
1777327016 25° C 63% 965 hPa - - 0 W/m² -
1777326392 24.44° C 68% 965 hPa - - 0 W/m² -
1777325768 24.44° C 67% 965 hPa - - 0 W/m² -
1777325144 24.44° C 67% 965 hPa - - 0 W/m² -

* Rain since midnight (hover to see other rain measurements)
** Current wind speed in m/s (hover to see current wind gust speed)